ADDS METAR Data INFO
IDs: Format: Raw Decoded Include TAF

Data at: 0739 UTC 23 Jul 2018

KTXK 230653Z AUTO 00000KT 10SM CLR 24/21 A2986 RMK AO2 SLP106 T02390211
KTXK 230553Z AUTO 00000KT 10SM CLR 24/22 A2987 RMK AO2 SLP107 T02440217 10306 20239 403610239 51006
KTXK 230453Z AUTO 00000KT 10SM CLR 26/22 A2987 RMK AO2 SLP108 T02560217
KTXK 230353Z AUTO 00000KT 10SM CLR 27/22 A2986 RMK AO2 SLP106 T02670222
KTXK 230253Z AUTO 00000KT 10SM CLR 27/22 A2985 RMK AO2 SLP102 T02670217 53006
KTXK 230153Z 05004KT 10SM CLR 28/22 A2984 RMK AO2 SLP099 T02830217
KTXK 230053Z 00000KT 10SM FEW110 29/21 A2982 RMK AO2 SLP092 T02940211
KTXK 222353Z 12003KT 10SM FEW110 31/20 A2983 RMK AO2 RAB35E49 SLP096 P0000 60000 T03060200 10361 20300 58015
KTXK 222253Z 10003KT 10SM FEW120 32/19 A2986 RMK AO2 SLP106 T03170194
KTXK 222153Z 04004KT 5SM HZ CLR 33/19 A2986 RMK AO2 SLP105 T03330189
KTXK 222053Z 02007KT 10SM CLR 34/19 A2987 RMK AO2 SLP109 T03390194 56007
KTXK 221953Z 07003KT 10SM CLR 35/18 A2988 RMK AO2 SLP110 T03500178
KTXK 221853Z 03006KT 10SM CLR 34/18 A2988 RMK AO2 SLP112 T03440178
KTXK 221753Z VRB03KT 10SM CLR 35/17 A2989 RMK AO2 SLP116 T03500167 10350 20256 58014
KTXK 221653Z 00000KT 10SM CLR 33/17 A2991 RMK AO2 SLP123 T03330172
KTXK 221553Z 08007KT 10SM CLR 32/17 A2994 RMK AO2 SLP131 T03170167
KTXK 221453Z VRB05KT 10SM CLR 31/18 A2994 RMK AO2 SLP130 T03060178 50003
KTXK 221353Z VRB05KT 10SM CLR 28/19 A2994 RMK AO2 SLP131 T02830194
KTXK 221253Z 06003KT 10SM CLR 27/21 A2993 RMK AO2 SLP128 T02670206
KTXK 221153Z 00000KT 10SM CLR 26/20 A2993 RMK AO2 SLP127 T02610200 10294 20250 51017
KTXK 221053Z 02003KT 10SM CLR 27/21 A2991 RMK AO2 SLP123 T02670206
KTXK 220953Z AUTO 05005KT 10SM CLR 27/21 A2990 RMK AO2 SLP118 T02720211
KTXK 220853Z AUTO 00000KT 10SM CLR 28/19 A2988 RMK AO2 SLP110 T02780194 53001
KTXK 220753Z AUTO 24005KT 10SM CLR 28/19 A2986 RMK AO2 SLP106 T02830194
KTXK 220653Z AUTO 23006KT 10SM CLR 28/21 A2987 RMK AO2 SLP107 T02830211
KTXK 220553Z AUTO 21003KT 10SM CLR 29/21 A2987 RMK AO2 SLP109 T02940211 10383 20278 403940250 51003
KTXK 220453Z AUTO 00000KT 10SM CLR 28/21 A2987 RMK AO2 SLP108 T02830211
KTXK 220353Z AUTO 21003KT 10SM CLR 31/21 A2987 RMK AO2 SLP108 T03110206
KTXK 220253Z AUTO 19005KT 10SM CLR 32/21 A2986 RMK AO2 SLP106 T03220206 53006
KTXK 220153Z 19004KT 10SM CLR 33/21 A2985 RMK AO2 SLP103 T03330206
KTXK 220053Z 19004KT 10SM CLR 36/20 A2985 RMK AO2 SLP100 T03610200
KTXK 212353Z 21005KT 10SM CLR 38/19 A2984 RMK AO2 SLP099 T03780189 10394 20344 58007
KTXK 212253Z 22010KT 10SM CLR 39/19 A2985 RMK AO2 SLP102 T03890194
KTXK 212153Z 25009KT 10SM CLR 39/19 A2986 RMK AO2 SLP105 T03890194
KTXK 212053Z 22012KT 10SM CLR 39/20 A2987 RMK AO2 SLP107 T03890200 58022
KTXK 211956Z 24010KT 10SM CLR 37/22 A2989 RMK AO2 T03720217
KTXK 211953Z AUTO 22009KT 10SM CLR 37/22 A2989 RMK AO2 SLP115 T03670217